Time;durP1;ratioP1;P1;durP2;ratioP2;P2;SDS_P1;SDS_P2;PMS_P1;PMS_P2;Temp;Humidity;BMP_temperature;BMP_pressure;BME280_temperature;BME280_humidity;BME280_pressure;Samples;Min_cycle;Max_cycle;Signal;HPM_P1;HPM_P2
2023/05/07 00:01:21;;;;;;;6.90;2.40;;;;;;;;;;5008352;28;20041;-67
2023/05/07 00:03:48;;;;;;;5.32;2.42;;;;;;;;;;5011943;28;20057;-69
2023/05/07 00:06:15;;;;;;;7.30;2.30;;;;;;;;;;5005359;28;21067;-70
2023/05/07 00:08:41;;;;;;;5.05;2.30;;;;;;;;;;5019890;28;20057;-71
2023/05/07 00:11:09;;;;;;;5.43;2.20;;;;;;;;;;5058375;28;20160;-72
2023/05/07 00:13:36;;;;;;;3.90;1.90;;;;;;;;;;5003340;28;20058;-67
2023/05/07 00:16:02;;;;;;;7.10;2.50;;;;;;;;;;4989652;28;20061;-69
2023/05/07 00:18:28;;;;;;;4.13;2.08;;;;;;;;;;5040079;28;20053;-66
2023/05/07 00:20:55;;;;;;;4.80;2.20;;;;;;;;;;5020204;28;20088;-71
2023/05/07 00:23:22;;;;;;;4.70;2.22;;;;;;;;;;4996868;28;20066;-70
2023/05/07 00:25:49;;;;;;;6.97;2.13;;;;;;;;;;4997696;28;20129;-67
2023/05/07 00:28:16;;;;;;;3.95;1.98;;;;;;;;;;4990995;28;20065;-71
2023/05/07 00:30:43;;;;;;;5.70;2.07;;;;;;;;;;4999252;28;20057;-69
2023/05/07 00:33:09;;;;;;;5.82;2.35;;;;;;;;;;4996136;28;20107;-69
2023/05/07 00:35:36;;;;;;;4.50;2.30;;;;;;;;;;5000531;28;20085;-66
2023/05/07 00:38:02;;;;;;;6.60;2.30;;;;;;;;;;4990992;28;20077;-69
2023/05/07 00:40:28;;;;;;;3.97;1.83;;;;;;;;;;4999319;28;20116;-71
2023/05/07 00:42:57;;;;;;;4.78;2.30;;;;;;;;;;4996008;28;20064;-68
2023/05/07 00:45:26;;;;;;;5.00;2.22;;;;;;;;;;4998020;28;20060;-69
2023/05/07 00:47:55;;;;;;;3.55;1.90;;;;;;;;;;4992202;28;20129;-70
2023/05/07 00:50:22;;;;;;;3.60;2.00;;;;;;;;;;4995068;28;20058;-69
2023/05/07 00:52:48;;;;;;;4.93;2.03;;;;;;;;;;4995220;28;20119;-69
2023/05/07 00:55:15;;;;;;;4.10;1.85;;;;;;;;;;4998525;28;20089;-70
2023/05/07 00:57:41;;;;;;;3.92;1.90;;;;;;;;;;5024669;28;20057;-70
2023/05/07 01:00:08;;;;;;;5.85;2.58;;;;;;;;;;5032177;28;20231;-70
2023/05/07 01:02:36;;;;;;;5.50;2.40;;;;;;;;;;5037393;28;20048;-66
2023/05/07 01:05:05;;;;;;;4.97;2.10;;;;;;;;;;5034485;28;20077;-68
2023/05/07 01:07:32;;;;;;;4.78;2.20;;;;;;;;;;5007166;28;20123;-69
2023/05/07 01:09:59;;;;;;;4.07;1.90;;;;;;;;;;5008852;28;20057;-71
2023/05/07 01:12:27;;;;;;;5.22;2.22;;;;;;;;;;5018379;28;20069;-69
2023/05/07 01:14:54;;;;;;;4.25;2.20;;;;;;;;;;5016444;28;20061;-69
2023/05/07 01:17:20;;;;;;;5.47;2.20;;;;;;;;;;5015487;28;20072;-70
2023/05/07 01:19:48;;;;;;;6.65;1.98;;;;;;;;;;5022817;28;20064;-69
2023/05/07 01:22:22;;;;;;;4.20;2.35;;;;;;;;;;5017508;28;20057;-69
2023/05/07 01:24:50;;;;;;;4.50;2.13;;;;;;;;;;5013513;28;20128;-68
2023/05/07 01:27:16;;;;;;;6.07;2.60;;;;;;;;;;5016048;28;20130;-71
2023/05/07 01:29:43;;;;;;;6.18;2.75;;;;;;;;;;5016060;28;20231;-69
2023/05/07 01:32:09;;;;;;;5.25;2.45;;;;;;;;;;5010051;28;20057;-70
2023/05/07 01:34:37;;;;;;;5.00;2.47;;;;;;;;;;5015745;28;20053;-70
2023/05/07 01:37:03;;;;;;;4.38;2.20;;;;;;;;;;5014210;28;20107;-68
2023/05/07 01:39:30;;;;;;;6.55;2.55;;;;;;;;;;5019563;28;20192;-68
2023/05/07 01:41:59;;;;;;;5.03;2.45;;;;;;;;;;5014731;28;20137;-70
2023/05/07 01:44:25;;;;;;;3.88;2.20;;;;;;;;;;5015383;28;20068;-72
2023/05/07 01:46:52;;;;;;;5.82;2.42;;;;;;;;;;5011323;28;20272;-70
2023/05/07 01:49:19;;;;;;;4.65;2.38;;;;;;;;;;4997343;28;20152;-67
2023/05/07 01:51:45;;;;;;;4.47;2.15;;;;;;;;;;4995034;28;20064;-69
2023/05/07 01:54:12;;;;;;;4.75;2.50;;;;;;;;;;4992320;28;20068;-70
2023/05/07 01:56:38;;;;;;;6.60;2.92;;;;;;;;;;4995495;28;20062;-70
2023/05/07 01:59:06;;;;;;;4.50;2.25;;;;;;;;;;5037560;28;20061;-70
2023/05/07 02:01:32;;;;;;;5.97;2.33;;;;;;;;;;5003406;28;20105;-67
2023/05/07 02:03:59;;;;;;;4.63;2.47;;;;;;;;;;5014911;28;20061;-68
2023/05/07 02:06:26;;;;;;;4.45;2.40;;;;;;;;;;5010852;28;20061;-66
2023/05/07 02:08:52;;;;;;;5.43;2.65;;;;;;;;;;5025224;28;20064;-68
2023/05/07 02:11:18;;;;;;;6.18;2.40;;;;;;;;;;5014065;28;20149;-68
2023/05/07 02:13:45;;;;;;;7.30;2.40;;;;;;;;;;4994255;28;20132;-69
2023/05/07 02:16:14;;;;;;;5.07;2.65;;;;;;;;;;4988363;28;20168;-68
2023/05/07 02:18:40;;;;;;;5.43;2.83;;;;;;;;;;4989146;28;20148;-68
2023/05/07 02:21:06;;;;;;;7.63;2.67;;;;;;;;;;4979560;28;20076;-68
2023/05/07 02:23:33;;;;;;;7.65;2.90;;;;;;;;;;5029001;28;20061;-70
2023/05/07 02:25:59;;;;;;;5.70;2.60;;;;;;;;;;5025904;28;20155;-67
2023/05/07 02:28:26;;;;;;;5.35;2.47;;;;;;;;;;5035367;28;20234;-70
2023/05/07 02:33:29;;;;;;;6.22;3.10;;;;;;;;;;5079827;23;20290;-68
2023/05/07 02:35:55;;;;;;;5.25;2.70;;;;;;;;;;4949681;28;20133;-69
2023/05/07 02:38:22;;;;;;;6.22;3.08;;;;;;;;;;4936310;28;20190;-71
2023/05/07 02:40:49;;;;;;;5.45;2.58;;;;;;;;;;4955595;28;20081;-66
2023/05/07 02:43:15;;;;;;;6.43;3.17;;;;;;;;;;4955156;28;20058;-68
2023/05/07 02:45:43;;;;;;;6.20;3.00;;;;;;;;;;4959962;28;20086;-69
2023/05/07 02:48:09;;;;;;;6.32;2.70;;;;;;;;;;4956618;28;20066;-71
2023/05/07 02:50:37;;;;;;;6.43;2.80;;;;;;;;;;4959775;28;20054;-70
2023/05/07 02:53:04;;;;;;;5.55;2.72;;;;;;;;;;4954927;28;20133;-70
2023/05/07 02:55:31;;;;;;;10.30;3.10;;;;;;;;;;4957491;28;20054;-71
2023/05/07 02:57:57;;;;;;;5.97;3.00;;;;;;;;;;4970520;28;20054;-70
2023/05/07 03:00:24;;;;;;;6.15;2.40;;;;;;;;;;4961191;28;20066;-66
2023/05/07 03:02:51;;;;;;;6.10;2.67;;;;;;;;;;4955534;28;20065;-69
2023/05/07 03:05:17;;;;;;;5.95;3.03;;;;;;;;;;4959019;28;20157;-67
2023/05/07 03:07:46;;;;;;;5.57;3.08;;;;;;;;;;4971127;28;20062;-70
2023/05/07 03:10:12;;;;;;;6.20;2.80;;;;;;;;;;4960299;28;20065;-69
2023/05/07 03:12:39;;;;;;;6.88;2.78;;;;;;;;;;4954652;28;20117;-69
2023/05/07 03:15:07;;;;;;;5.82;2.80;;;;;;;;;;4960509;28;20151;-69
2023/05/07 03:17:34;;;;;;;5.72;2.90;;;;;;;;;;4967253;28;20050;-69
2023/05/07 03:20:01;;;;;;;5.20;2.70;;;;;;;;;;4961142;28;20070;-70
2023/05/07 03:22:27;;;;;;;6.82;2.85;;;;;;;;;;4961232;28;20057;-66
2023/05/07 03:24:55;;;;;;;6.25;3.03;;;;;;;;;;4975930;28;20054;-71
2023/05/07 03:27:22;;;;;;;10.67;2.93;;;;;;;;;;4972616;28;20187;-69
2023/05/07 03:29:48;;;;;;;5.88;2.90;;;;;;;;;;4974789;28;20341;-70
2023/05/07 03:32:15;;;;;;;5.70;3.08;;;;;;;;;;4978537;28;20045;-68
2023/05/07 03:34:41;;;;;;;7.70;3.45;;;;;;;;;;4991169;28;20049;-66
2023/05/07 03:37:08;;;;;;;6.88;3.10;;;;;;;;;;4997095;28;20151;-69
2023/05/07 03:39:35;;;;;;;7.35;3.05;;;;;;;;;;5009190;28;20068;-68
2023/05/07 03:42:03;;;;;;;6.93;2.97;;;;;;;;;;4993848;28;20064;-67
2023/05/07 03:44:29;;;;;;;7.20;2.65;;;;;;;;;;4992823;28;20067;-71
2023/05/07 03:46:56;;;;;;;8.82;3.10;;;;;;;;;;4998919;28;20148;-68
2023/05/07 03:49:22;;;;;;;6.60;3.00;;;;;;;;;;4999670;28;20073;-68
2023/05/07 03:51:56;;;;;;;7.07;3.42;;;;;;;;;;5012405;28;20057;-70
2023/05/07 03:54:22;;;;;;;5.97;3.30;;;;;;;;;;5018495;28;20196;-67
2023/05/07 03:56:49;;;;;;;8.30;3.30;;;;;;;;;;5013188;28;20095;-70
2023/05/07 03:59:17;;;;;;;6.63;3.28;;;;;;;;;;5003075;28;20053;-69
2023/05/07 04:01:43;;;;;;;5.17;2.70;;;;;;;;;;5010539;28;20085;-69
2023/05/07 04:04:10;;;;;;;6.43;3.10;;;;;;;;;;4995075;28;20049;-72
2023/05/07 04:06:36;;;;;;;6.43;3.65;;;;;;;;;;4997606;28;20087;-67
2023/05/07 04:09:03;;;;;;;6.70;3.50;;;;;;;;;;4999132;28;20069;-71
2023/05/07 04:11:29;;;;;;;7.15;3.42;;;;;;;;;;5013602;28;20061;-72
2023/05/07 04:13:56;;;;;;;7.00;3.47;;;;;;;;;;4999701;28;20058;-65
2023/05/07 04:16:24;;;;;;;7.85;3.78;;;;;;;;;;5013550;28;20080;-70
2023/05/07 04:18:51;;;;;;;7.28;3.67;;;;;;;;;;5013558;28;20116;-71
2023/05/07 04:21:17;;;;;;;7.22;3.72;;;;;;;;;;5013570;28;20143;-69
2023/05/07 04:23:44;;;;;;;7.95;3.63;;;;;;;;;;4998515;28;20131;-69
2023/05/07 04:26:10;;;;;;;8.20;3.97;;;;;;;;;;4992350;28;22628;-67
2023/05/07 04:28:37;;;;;;;6.82;3.83;;;;;;;;;;5003660;28;20069;-67
2023/05/07 04:31:03;;;;;;;7.25;3.70;;;;;;;;;;5018749;28;20057;-69
2023/05/07 04:33:31;;;;;;;8.27;4.10;;;;;;;;;;4998783;28;20049;-69
2023/05/07 04:36:02;;;;;;;7.60;4.05;;;;;;;;;;4997716;28;20140;-70
2023/05/07 04:38:29;;;;;;;8.57;4.07;;;;;;;;;;5015896;28;20169;-67
2023/05/07 04:40:55;;;;;;;7.53;4.03;;;;;;;;;;5004871;28;20125;-69
2023/05/07 04:43:22;;;;;;;8.63;4.38;;;;;;;;;;4994628;28;20126;-67
2023/05/07 04:45:49;;;;;;;7.32;3.95;;;;;;;;;;5002452;28;20061;-68
2023/05/07 04:48:15;;;;;;;9.05;4.43;;;;;;;;;;4992272;28;20458;-67
2023/05/07 04:50:43;;;;;;;7.72;3.95;;;;;;;;;;5020105;28;20065;-66
2023/05/07 04:53:10;;;;;;;8.38;4.53;;;;;;;;;;4995135;28;20072;-67
2023/05/07 04:55:36;;;;;;;7.60;3.78;;;;;;;;;;5001442;28;20071;-66
2023/05/07 04:58:04;;;;;;;8.27;4.38;;;;;;;;;;4990907;28;20081;-69
2023/05/07 05:00:31;;;;;;;7.83;3.93;;;;;;;;;;5001110;28;20096;-71
2023/05/07 05:02:57;;;;;;;8.27;3.97;;;;;;;;;;5013102;28;20081;-70
2023/05/07 05:05:24;;;;;;;7.90;3.85;;;;;;;;;;5005458;28;20144;-69
2023/05/07 05:07:54;;;;;;;7.22;4.10;;;;;;;;;;5023668;28;20088;-66
2023/05/07 05:10:21;;;;;;;8.38;4.57;;;;;;;;;;5014689;28;20054;-71
2023/05/07 05:12:48;;;;;;;8.80;4.40;;;;;;;;;;4994577;28;20136;-67
2023/05/07 05:15:14;;;;;;;12.23;3.80;;;;;;;;;;5019637;28;20061;-69
2023/05/07 05:17:41;;;;;;;7.40;3.78;;;;;;;;;;5005836;28;20053;-67
2023/05/07 05:20:09;;;;;;;7.43;4.30;;;;;;;;;;5008729;28;20064;-70
2023/05/07 05:22:35;;;;;;;7.55;3.92;;;;;;;;;;5016972;28;20050;-70
2023/05/07 05:25:03;;;;;;;9.10;4.35;;;;;;;;;;4998697;28;20061;-66
2023/05/07 05:27:30;;;;;;;9.38;3.90;;;;;;;;;;5018793;28;20069;-70
2023/05/07 05:29:57;;;;;;;8.02;4.07;;;;;;;;;;5014359;28;20140;-66
2023/05/07 05:32:23;;;;;;;7.53;3.80;;;;;;;;;;4977751;28;20061;-67
2023/05/07 05:34:50;;;;;;;6.43;3.45;;;;;;;;;;4994376;28;20065;-65
2023/05/07 05:37:17;;;;;;;7.60;4.07;;;;;;;;;;4997059;28;20058;-70
2023/05/07 05:39:44;;;;;;;8.20;4.43;;;;;;;;;;4995829;28;20108;-67
2023/05/07 05:42:11;;;;;;;7.88;4.22;;;;;;;;;;4989622;28;20065;-68
2023/05/07 05:44:38;;;;;;;7.97;3.80;;;;;;;;;;4994985;28;20050;-67
2023/05/07 05:47:05;;;;;;;9.07;4.25;;;;;;;;;;4998848;28;20057;-69
2023/05/07 05:49:31;;;;;;;8.38;4.10;;;;;;;;;;4995590;28;20054;-67
2023/05/07 05:51:58;;;;;;;6.93;4.22;;;;;;;;;;4987660;28;20153;-68
2023/05/07 05:54:24;;;;;;;7.10;4.07;;;;;;;;;;4995261;28;20105;-70
2023/05/07 05:56:50;;;;;;;9.57;4.68;;;;;;;;;;4998889;28;20054;-70
2023/05/07 05:59:18;;;;;;;7.95;4.13;;;;;;;;;;4997330;28;20117;-67
2023/05/07 06:01:45;;;;;;;7.35;4.00;;;;;;;;;;4985273;28;20131;-66
2023/05/07 06:04:11;;;;;;;7.85;4.15;;;;;;;;;;4989978;28;20049;-67
2023/05/07 06:06:38;;;;;;;8.77;4.28;;;;;;;;;;5009524;28;20064;-66
2023/05/07 06:09:04;;;;;;;8.73;4.38;;;;;;;;;;4998076;28;20093;-67
2023/05/07 06:11:32;;;;;;;7.28;4.05;;;;;;;;;;4991507;28;20053;-67
2023/05/07 06:13:58;;;;;;;13.05;4.32;;;;;;;;;;4992374;28;20180;-69
2023/05/07 06:16:27;;;;;;;10.52;4.55;;;;;;;;;;4994123;28;20045;-70
2023/05/07 06:18:53;;;;;;;7.95;3.75;;;;;;;;;;4997864;28;20144;-65
2023/05/07 06:21:20;;;;;;;12.73;4.57;;;;;;;;;;4994490;28;20058;-70
2023/05/07 06:23:46;;;;;;;8.23;4.32;;;;;;;;;;4993945;28;20129;-70
2023/05/07 06:26:13;;;;;;;7.82;4.20;;;;;;;;;;4986066;28;20060;-71
2023/05/07 06:28:39;;;;;;;9.05;4.68;;;;;;;;;;4998049;28;20172;-71
2023/05/07 06:31:12;;;;;;;8.23;4.25;;;;;;;;;;4993246;28;20058;-66
2023/05/07 06:33:41;;;;;;;9.60;4.47;;;;;;;;;;4993468;28;20084;-71
2023/05/07 06:36:07;;;;;;;;;;;;;;;;;;4985321;28;20065;-68
2023/05/07 06:38:37;;;;;;;8.88;4.30;;;;;;;;;;4990340;28;19930;-69
2023/05/07 06:41:03;;;;;;;9.40;4.82;;;;;;;;;;4978927;28;20062;-67
2023/05/07 06:43:30;;;;;;;9.63;4.65;;;;;;;;;;4970782;28;20054;-71
2023/05/07 06:45:56;;;;;;;7.65;4.38;;;;;;;;;;4975116;28;20058;-71
2023/05/07 06:48:23;;;;;;;10.43;4.75;;;;;;;;;;4986357;28;20049;-72
2023/05/07 06:50:51;;;;;;;9.13;4.47;;;;;;;;;;4997821;28;20058;-72
2023/05/07 06:53:20;;;;;;;9.25;4.75;;;;;;;;;;4989659;28;20117;-73
2023/05/07 06:55:47;;;;;;;9.77;5.15;;;;;;;;;;4996198;28;20111;-73
2023/05/07 06:58:13;;;;;;;13.57;5.45;;;;;;;;;;4985276;28;20046;-70
2023/05/07 07:00:40;;;;;;;9.77;5.15;;;;;;;;;;4996903;28;20156;-68
2023/05/07 07:03:07;;;;;;;8.85;4.70;;;;;;;;;;4988805;28;20049;-71
2023/05/07 07:05:33;;;;;;;14.27;6.28;;;;;;;;;;4989960;28;20065;-72
2023/05/07 07:08:01;;;;;;;10.32;5.43;;;;;;;;;;4965973;28;20046;-72
2023/05/07 07:10:28;;;;;;;9.13;5.55;;;;;;;;;;4976269;28;20066;-70
2023/05/07 07:12:55;;;;;;;12.43;5.82;;;;;;;;;;4967517;28;20180;-72
2023/05/07 07:15:21;;;;;;;11.52;5.95;;;;;;;;;;4963286;28;20066;-72
2023/05/07 07:17:48;;;;;;;10.25;5.55;;;;;;;;;;4968035;28;20053;-70
2023/05/07 07:20:16;;;;;;;10.15;5.78;;;;;;;;;;4957929;28;20195;-71
2023/05/07 07:22:43;;;;;;;8.38;4.80;;;;;;;;;;4969243;28;20062;-73
2023/05/07 07:25:11;;;;;;;8.15;4.60;;;;;;;;;;4965982;28;20105;-71
2023/05/07 07:27:39;;;;;;;8.00;4.55;;;;;;;;;;4964681;28;20059;-72
2023/05/07 07:30:07;;;;;;;8.95;4.55;;;;;;;;;;4959564;28;20062;-73
2023/05/07 07:32:34;;;;;;;10.10;5.07;;;;;;;;;;4962005;28;20112;-72
2023/05/07 07:35:05;;;;;;;9.82;5.15;;;;;;;;;;5003023;28;20105;-68
2023/05/07 07:37:32;;;;;;;10.60;5.35;;;;;;;;;;4996935;28;20065;-73
2023/05/07 07:40:01;;;;;;;9.73;4.45;;;;;;;;;;4993764;28;20085;-72
2023/05/07 07:42:29;;;;;;;9.30;4.65;;;;;;;;;;4989464;28;20061;-73
2023/05/07 07:45:00;;;;;;;10.23;5.88;;;;;;;;;;4996639;28;20070;-70
2023/05/07 07:47:29;;;;;;;10.20;5.57;;;;;;;;;;4999170;28;20072;-72
2023/05/07 07:50:01;;;;;;;8.88;4.93;;;;;;;;;;4990442;28;20085;-75
2023/05/07 07:52:30;;;;;;;10.25;5.63;;;;;;;;;;4980039;28;20050;-73
2023/05/07 07:54:56;;;;;;;8.90;5.13;;;;;;;;;;4993124;28;20085;-71
2023/05/07 07:57:25;;;;;;;10.98;5.40;;;;;;;;;;4998275;28;20089;-74
2023/05/07 07:59:53;;;;;;;14.02;5.32;;;;;;;;;;4992986;28;20104;-66
2023/05/07 08:02:20;;;;;;;12.80;5.53;;;;;;;;;;4992301;28;20054;-68
2023/05/07 08:04:49;;;;;;;11.85;5.28;;;;;;;;;;4991957;28;20082;-66
2023/05/07 08:07:18;;;;;;;11.13;6.00;;;;;;;;;;4991245;28;20045;-69
2023/05/07 08:09:44;;;;;;;11.00;5.85;;;;;;;;;;4986997;28;20054;-69
2023/05/07 08:12:20;;;;;;;10.05;5.78;;;;;;;;;;4989409;28;20159;-71
2023/05/07 08:14:48;;;;;;;10.45;5.65;;;;;;;;;;4993241;28;20137;-68
2023/05/07 08:17:27;;;;;;;11.60;6.43;;;;;;;;;;4995551;28;20061;-68
2023/05/07 08:19:56;;;;;;;10.80;5.63;;;;;;;;;;4996205;28;20100;-72
2023/05/07 08:22:23;;;;;;;11.73;6.30;;;;;;;;;;4979778;28;20061;-67
2023/05/07 08:24:49;;;;;;;10.40;5.88;;;;;;;;;;5006879;28;20121;-70
2023/05/07 08:27:15;;;;;;;14.02;6.85;;;;;;;;;;4992634;28;20165;-69
2023/05/07 08:29:48;;;;;;;16.13;6.95;;;;;;;;;;4984860;28;20050;-72
2023/05/07 08:32:15;;;;;;;13.77;7.18;;;;;;;;;;4945552;28;20221;-67
2023/05/07 08:34:46;;;;;;;14.10;6.68;;;;;;;;;;4977996;28;20145;-68
2023/05/07 08:37:13;;;;;;;11.73;6.22;;;;;;;;;;4977852;28;20058;-71
2023/05/07 08:39:39;;;;;;;12.70;6.60;;;;;;;;;;4980789;28;20062;-66
2023/05/07 08:42:07;;;;;;;13.57;6.90;;;;;;;;;;4958714;28;20108;-69
2023/05/07 08:44:35;;;;;;;14.70;6.95;;;;;;;;;;5002393;28;20120;-71
2023/05/07 08:47:04;;;;;;;13.20;7.22;;;;;;;;;;4995941;28;20161;-65
2023/05/07 08:49:34;;;;;;;12.70;7.18;;;;;;;;;;4999551;28;20057;-67
2023/05/07 08:52:08;;;;;;;13.38;6.60;;;;;;;;;;4972431;28;20061;-70
2023/05/07 08:54:38;;;;;;;13.38;6.85;;;;;;;;;;4998692;28;20081;-70
2023/05/07 08:57:04;;;;;;;13.93;6.88;;;;;;;;;;4995718;28;20104;-65
2023/05/07 08:59:31;;;;;;;14.18;7.05;;;;;;;;;;4998507;28;20061;-72
2023/05/07 09:01:57;;;;;;;11.75;7.40;;;;;;;;;;4950909;28;21114;-68
2023/05/07 09:04:26;;;;;;;11.48;6.50;;;;;;;;;;4989695;28;20058;-67
2023/05/07 09:06:52;;;;;;;;;;;;;;;;;;4977599;28;20141;-67
2023/05/07 09:09:30;;;;;;;13.10;6.78;;;;;;;;;;4979727;28;19936;-74
2023/05/07 09:12:03;;;;;;;14.18;8.02;;;;;;;;;;4972182;28;20054;-70
2023/05/07 09:14:32;;;;;;;11.98;7.03;;;;;;;;;;4981403;28;20058;-70
2023/05/07 09:16:59;;;;;;;11.57;6.68;;;;;;;;;;4979882;28;20121;-68
2023/05/07 09:19:26;;;;;;;12.63;6.93;;;;;;;;;;4975529;28;20133;-66
2023/05/07 09:21:59;;;;;;;14.48;6.85;;;;;;;;;;4954969;28;20085;-69
2023/05/07 09:24:28;;;;;;;14.75;6.93;;;;;;;;;;4992049;28;20145;-68
2023/05/07 09:26:55;;;;;;;11.70;6.75;;;;;;;;;;5000744;28;20089;-75
2023/05/07 09:29:21;;;;;;;14.65;7.43;;;;;;;;;;5009410;28;20065;-67
2023/05/07 09:31:48;;;;;;;14.05;7.13;;;;;;;;;;4996309;28;20268;-65
2023/05/07 09:34:14;;;;;;;15.35;7.45;;;;;;;;;;4987340;28;20060;-72
2023/05/07 09:36:41;;;;;;;13.85;6.40;;;;;;;;;;4998065;28;20065;-71
2023/05/07 09:39:07;;;;;;;20.17;7.75;;;;;;;;;;4996353;28;20065;-68
2023/05/07 09:41:43;;;;;;;11.93;6.72;;;;;;;;;;4996817;28;20088;-66
2023/05/07 09:44:10;;;;;;;15.35;6.68;;;;;;;;;;4950405;28;20054;-68
2023/05/07 09:46:37;;;;;;;12.85;7.15;;;;;;;;;;4994759;28;20081;-68
2023/05/07 09:49:08;;;;;;;15.40;6.88;;;;;;;;;;4996630;28;20068;-73
2023/05/07 09:51:40;;;;;;;12.70;5.88;;;;;;;;;;4996727;28;20061;-72
2023/05/07 09:54:07;;;;;;;14.88;6.63;;;;;;;;;;4973103;28;20050;-70
2023/05/07 09:56:37;;;;;;;12.02;6.70;;;;;;;;;;5000539;28;20061;-68
2023/05/07 09:59:05;;;;;;;15.10;7.20;;;;;;;;;;4993295;28;20062;-69
2023/05/07 10:01:32;;;;;;;16.35;6.93;;;;;;;;;;4997219;28;20058;-68
2023/05/07 10:04:03;;;;;;;15.10;6.82;;;;;;;;;;4962999;28;20058;-70
2023/05/07 10:06:30;;;;;;;11.70;6.60;;;;;;;;;;4998306;28;20055;-73
2023/05/07 10:08:57;;;;;;;14.15;6.25;;;;;;;;;;4989021;28;20088;-73
2023/05/07 10:11:23;;;;;;;11.52;6.25;;;;;;;;;;4991894;28;20053;-67
2023/05/07 10:13:56;;;;;;;11.70;5.97;;;;;;;;;;4963578;28;20065;-69
2023/05/07 10:16:27;;;;;;;16.00;6.30;;;;;;;;;;4984237;28;20065;-67
2023/05/07 10:18:56;;;;;;;11.90;6.32;;;;;;;;;;4997689;28;20112;-71
2023/05/07 10:21:24;;;;;;;15.07;6.43;;;;;;;;;;4991913;28;20073;-68
2023/05/07 10:23:58;;;;;;;12.68;6.10;;;;;;;;;;4983344;28;20155;-69
2023/05/07 10:26:26;;;;;;;10.27;5.82;;;;;;;;;;4994026;28;20065;-71
2023/05/07 10:29:00;;;;;;;11.63;6.00;;;;;;;;;;4998201;28;20068;-65
2023/05/07 10:31:43;;;;;;;11.32;5.85;;;;;;;;;;4994049;28;20135;-72
2023/05/07 10:34:10;;;;;;;13.02;6.22;;;;;;;;;;4959420;28;20124;-71
2023/05/07 10:36:39;;;;;;;12.38;5.95;;;;;;;;;;4994737;28;20053;-69
2023/05/07 10:39:06;;;;;;;11.20;6.25;;;;;;;;;;4996348;28;20070;-65
2023/05/07 10:41:32;;;;;;;13.98;5.60;;;;;;;;;;4991667;28;20065;-65
2023/05/07 10:44:05;;;;;;;11.15;6.15;;;;;;;;;;4965714;28;20232;-69
2023/05/07 10:46:34;;;;;;;12.85;6.65;;;;;;;;;;4961899;28;20071;-67
2023/05/07 10:49:07;;;;;;;12.00;5.80;;;;;;;;;;4973865;28;20058;-67
2023/05/07 10:51:35;;;;;;;13.05;6.95;;;;;;;;;;4962162;28;20105;-63
2023/05/07 10:54:20;;;;;;;13.10;6.07;;;;;;;;;;4960377;28;20061;-68
2023/05/07 10:56:47;;;;;;;16.65;6.18;;;;;;;;;;4973338;28;20050;-70
2023/05/07 10:59:33;;;;;;;12.15;6.40;;;;;;;;;;4976951;28;20058;-64
2023/05/07 11:02:03;;;;;;;12.70;6.40;;;;;;;;;;4967495;28;20057;-66
2023/05/07 11:04:34;;;;;;;11.73;6.47;;;;;;;;;;4987334;28;20058;-68
2023/05/07 11:07:19;;;;;;;13.77;7.22;;;;;;;;;;4981735;28;20054;-69
2023/05/07 11:10:01;;;;;;;11.57;6.85;;;;;;;;;;5011068;28;20070;-68
2023/05/07 11:12:45;;;;;;;10.45;5.97;;;;;;;;;;4981013;28;20255;-66
2023/05/07 11:15:15;;;;;;;11.02;6.25;;;;;;;;;;4989812;28;20043;-76
2023/05/07 11:17:56;;;;;;;11.88;6.50;;;;;;;;;;4981577;28;20065;-66
2023/05/07 11:23:59;;;;;;;10.73;6.20;;;;;;;;;;5047929;27;20444;-74
2023/05/07 11:26:28;;;;;;;10.63;6.35;;;;;;;;;;5013108;28;20116;-70
2023/05/07 11:29:00;;;;;;;13.90;7.07;;;;;;;;;;5009090;28;20133;-65
2023/05/07 11:31:31;;;;;;;13.90;6.97;;;;;;;;;;5014486;28;20149;-68
2023/05/07 11:34:00;;;;;;;14.25;5.88;;;;;;;;;;5005792;28;20164;-75
2023/05/07 11:36:33;;;;;;;12.40;6.25;;;;;;;;;;5012350;28;20243;-64
2023/05/07 11:39:03;;;;;;;13.57;6.03;;;;;;;;;;5006105;28;20096;-73
2023/05/07 11:41:37;;;;;;;13.05;6.28;;;;;;;;;;5011657;28;20066;-72
2023/05/07 11:44:03;;;;;;;11.00;5.88;;;;;;;;;;4973105;28;20045;-67
2023/05/07 11:46:30;;;;;;;9.98;5.70;;;;;;;;;;5016016;28;20060;-66
2023/05/07 11:48:57;;;;;;;12.00;6.03;;;;;;;;;;5010689;28;20064;-69
2023/05/07 11:51:27;;;;;;;12.75;5.63;;;;;;;;;;5013863;28;20119;-67
2023/05/07 11:53:56;;;;;;;9.45;5.18;;;;;;;;;;4984272;28;20054;-66
2023/05/07 11:56:32;;;;;;;9.35;5.35;;;;;;;;;;5005826;28;21653;-72
2023/05/07 11:58:58;;;;;;;12.65;5.07;;;;;;;;;;5009116;28;20049;-70
2023/05/07 12:01:27;;;;;;;10.38;4.88;;;;;;;;;;5010522;28;20065;-72
2023/05/07 12:03:56;;;;;;;9.85;5.20;;;;;;;;;;4990637;28;20081;-64
2023/05/07 12:06:22;;;;;;;10.05;5.22;;;;;;;;;;4999496;28;20063;-68
2023/05/07 12:08:49;;;;;;;10.77;5.03;;;;;;;;;;5005383;28;20052;-68
2023/05/07 12:11:17;;;;;;;12.80;5.15;;;;;;;;;;5009064;28;20065;-67
2023/05/07 12:13:48;;;;;;;12.02;5.40;;;;;;;;;;5016440;28;20076;-68
2023/05/07 12:16:15;;;;;;;;;;;;;;;;;;5025684;28;20863;-70
2023/05/07 12:18:44;;;;;;;9.55;4.65;;;;;;;;;;5033169;28;19984;-67
2023/05/07 12:21:17;;;;;;;10.60;5.25;;;;;;;;;;5029934;28;20264;-70
2023/05/07 12:23:46;;;;;;;9.68;5.50;;;;;;;;;;4982642;28;20066;-67
2023/05/07 12:26:29;;;;;;;11.45;5.22;;;;;;;;;;5014431;28;20287;-69
2023/05/07 12:28:58;;;;;;;9.32;5.18;;;;;;;;;;5038151;28;20053;-69
2023/05/07 12:31:29;;;;;;;10.05;5.13;;;;;;;;;;5037159;28;20049;-70
2023/05/07 12:34:03;;;;;;;10.70;5.22;;;;;;;;;;5011457;28;20067;-71
2023/05/07 12:36:45;;;;;;;10.05;5.18;;;;;;;;;;5016461;28;20080;-71
2023/05/07 12:39:16;;;;;;;11.38;4.88;;;;;;;;;;5020740;28;20164;-73
2023/05/07 12:42:01;;;;;;;13.20;5.30;;;;;;;;;;5008860;28;20065;-72
2023/05/07 12:44:36;;;;;;;10.80;4.70;;;;;;;;;;4955275;28;20057;-72
2023/05/07 12:47:07;;;;;;;10.55;4.97;;;;;;;;;;5015181;28;20045;-71
2023/05/07 12:49:38;;;;;;;10.05;5.32;;;;;;;;;;5022949;28;20092;-68
2023/05/07 12:52:07;;;;;;;9.93;5.15;;;;;;;;;;4997801;28;20049;-69
2023/05/07 12:54:33;;;;;;;;;;;;;;;;;;4979550;28;20072;-71
2023/05/07 12:57:20;;;;;;;9.13;5.05;;;;;;;;;;4982473;28;19932;-65
2023/05/07 12:59:52;;;;;;;12.23;5.35;;;;;;;;;;4981335;28;20325;-71
2023/05/07 13:02:35;;;;;;;10.38;5.50;;;;;;;;;;4973166;28;21278;-70
2023/05/07 13:05:11;;;;;;;10.90;5.57;;;;;;;;;;4958085;28;20075;-73
2023/05/07 13:07:53;;;;;;;9.02;5.70;;;;;;;;;;4992255;28;20046;-68
2023/05/07 13:10:23;;;;;;;11.25;5.82;;;;;;;;;;4979470;28;20066;-72
2023/05/07 13:12:49;;;;;;;12.05;5.28;;;;;;;;;;4984377;28;20065;-67
2023/05/07 13:15:17;;;;;;;12.60;5.50;;;;;;;;;;4997843;28;20054;-69
2023/05/07 13:17:44;;;;;;;9.40;4.85;;;;;;;;;;4995464;28;20050;-65
2023/05/07 13:20:13;;;;;;;11.82;5.88;;;;;;;;;;4994167;28;20398;-65
2023/05/07 13:22:40;;;;;;;12.30;6.63;;;;;;;;;;4995875;28;20061;-69
2023/05/07 13:25:07;;;;;;;11.25;6.50;;;;;;;;;;5000209;28;20066;-69
2023/05/07 13:27:35;;;;;;;9.48;5.40;;;;;;;;;;4993390;28;20057;-66
2023/05/07 13:30:02;;;;;;;14.52;6.30;;;;;;;;;;4995003;28;20097;-67
2023/05/07 13:32:30;;;;;;;11.07;6.03;;;;;;;;;;4995166;28;20065;-66
2023/05/07 13:34:56;;;;;;;;;;;;;;;;;;5001566;28;20062;-67
2023/05/07 13:37:25;;;;;;;10.25;6.05;;;;;;;;;;4997288;28;19933;-68
2023/05/07 13:39:55;;;;;;;11.52;5.65;;;;;;;;;;5015212;28;20061;-69
2023/05/07 13:42:23;;;;;;;14.95;6.45;;;;;;;;;;5010412;28;20974;-67
2023/05/07 13:44:49;;;;;;;12.43;6.00;;;;;;;;;;5016443;28;20084;-67
2023/05/07 13:47:16;;;;;;;9.48;5.38;;;;;;;;;;5015794;28;20154;-70
2023/05/07 13:49:43;;;;;;;10.05;5.38;;;;;;;;;;5013841;28;20061;-70
2023/05/07 13:52:10;;;;;;;11.00;5.25;;;;;;;;;;5003491;28;20050;-70
2023/05/07 13:54:40;;;;;;;14.07;5.78;;;;;;;;;;4996409;28;20053;-67
2023/05/07 13:57:06;;;;;;;13.38;5.65;;;;;;;;;;4997810;28;20057;-68
2023/05/07 13:59:35;;;;;;;9.70;5.85;;;;;;;;;;4995521;28;20156;-66
2023/05/07 14:02:01;;;;;;;13.10;5.88;;;;;;;;;;4983444;28;20054;-69
2023/05/07 14:04:33;;;;;;;10.40;5.80;;;;;;;;;;4982628;28;20151;-69
2023/05/07 14:07:01;;;;;;;12.70;5.90;;;;;;;;;;5018379;28;20084;-69
2023/05/07 14:09:27;;;;;;;9.38;5.65;;;;;;;;;;5012654;28;20050;-66
2023/05/07 14:11:58;;;;;;;11.48;6.25;;;;;;;;;;5012407;28;20045;-69
2023/05/07 14:14:27;;;;;;;11.95;5.75;;;;;;;;;;5009727;28;21248;-69
2023/05/07 14:16:54;;;;;;;14.10;5.50;;;;;;;;;;5020428;28;20065;-68
2023/05/07 14:19:22;;;;;;;13.55;6.05;;;;;;;;;;5013462;28;21032;-66
2023/05/07 14:21:48;;;;;;;;;;;;;;;;;;5017681;28;20068;-72
2023/05/07 14:24:21;;;;;;;8.20;4.97;;;;;;;;;;4994361;28;21668;-71
2023/05/07 14:26:50;;;;;;;11.70;6.32;;;;;;;;;;5032174;28;20053;-68
2023/05/07 14:29:24;;;;;;;11.55;5.93;;;;;;;;;;5019089;28;20176;-71
2023/05/07 14:31:50;;;;;;;14.32;7.28;;;;;;;;;;5017629;28;20057;-71
2023/05/07 14:34:17;;;;;;;11.90;6.40;;;;;;;;;;4989573;28;20061;-68
2023/05/07 14:36:44;;;;;;;16.42;6.65;;;;;;;;;;5017795;28;20148;-68
2023/05/07 14:39:10;;;;;;;15.82;7.03;;;;;;;;;;5023470;28;20095;-68
2023/05/07 14:41:38;;;;;;;11.70;6.72;;;;;;;;;;5011589;28;20123;-69
2023/05/07 14:44:05;;;;;;;12.93;6.65;;;;;;;;;;4987422;28;20087;-68
2023/05/07 14:46:39;;;;;;;16.88;6.72;;;;;;;;;;5006989;28;20053;-68
2023/05/07 14:49:05;;;;;;;12.93;5.97;;;;;;;;;;5018671;28;20139;-69
2023/05/07 14:51:32;;;;;;;11.35;6.22;;;;;;;;;;5013856;28;20064;-66